Time;durP1;ratioP1;P1;durP2;ratioP2;P2;SDS_P1;SDS_P2;PMS_P1;PMS_P2;Temp;Humidity;BMP_temperature;BMP_pressure;BME280_temperature;BME280_humidity;BME280_pressure;Samples;Min_cycle;Max_cycle;Signal;HPM_P1;HPM_P2
2022/03/19 00:01:44;;;;;;;;;;;;;;;1.43;53.17;102038.16;5053253;28;19935;-51
2022/03/19 00:04:09;;;;;;;;;;;;;;;1.10;51.70;102008.50;5067568;28;20319;-52
2022/03/19 00:06:38;;;;;;;;;;;;;;;1.09;50.15;102030.44;5058707;28;19912;-50
2022/03/19 00:09:05;;;;;;;;;;;;;;;1.21;52.55;102023.63;5053728;28;20358;-49
2022/03/19 00:11:31;;;;;;;;;;;;;;;1.40;52.50;102028.69;5053819;28;19909;-48
2022/03/19 00:13:56;;;;;;;;;;;;;;;1.52;52.38;102033.25;5053270;28;19982;-49
2022/03/19 00:16:21;;;;;;;;;;;;;;;1.44;51.59;102022.31;5053380;28;19913;-47
2022/03/19 00:18:47;;;;;;;;;;;;;;;1.35;52.82;102026.34;5053198;28;20309;-49
2022/03/19 00:21:12;;;;;;;;;;;;;;;1.31;52.87;102019.56;5053165;28;19912;-48
2022/03/19 00:23:37;;;;;;;;;;;;;;;1.35;53.44;102023.72;5053357;28;20311;-50
2022/03/19 00:26:03;;;;;;;;;;;;;;;1.37;55.52;102013.09;5053167;28;20427;-49
2022/03/19 00:28:28;;;;;;;;;;;;;;;1.50;53.10;102021.13;5053035;28;20007;-49
2022/03/19 00:30:54;;;;;;;;;;;;;;;1.40;54.83;102023.44;5053112;28;20007;-50
2022/03/19 00:33:19;;;;;;;;;;;;;;;1.26;52.00;102013.75;5052454;28;19908;-48
2022/03/19 00:35:44;;;;;;;;;;;;;;;1.37;52.16;102013.09;5052928;28;19909;-48
2022/03/19 00:38:09;;;;;;;;;;;;;;;1.51;53.67;102018.41;5052906;28;19972;-47
2022/03/19 00:40:35;;;;;;;;;;;;;;;1.55;53.82;102022.53;5052996;28;19912;-47
2022/03/19 00:43:01;;;;;;;;;;;;;;;1.92;49.77;102016.91;5053196;28;19912;-48
2022/03/19 00:45:27;;;;;;;;;;;;;;;1.91;50.11;102012.59;5052808;28;20385;-50
2022/03/19 00:47:52;;;;;;;;;;;;;;;1.65;51.94;102011.50;5053142;28;20066;-51
2022/03/19 00:50:18;;;;;;;;;;;;;;;1.53;51.53;102023.59;5052539;28;19954;-48
2022/03/19 00:52:43;;;;;;;;;;;;;;;1.51;54.27;102015.78;5052628;28;20000;-49
2022/03/19 00:55:09;;;;;;;;;;;;;;;1.29;51.96;102020.56;5052910;28;19966;-36
2022/03/19 00:57:38;;;;;;;;;;;;;;;1.44;53.55;102016.22;5052584;28;19908;-37
2022/03/19 01:00:04;;;;;;;;;;;;;;;1.51;52.07;102014.94;5052688;28;19928;-37
2022/03/19 01:02:29;;;;;;;;;;;;;;;1.56;52.59;102013.75;5051979;28;20565;-36
2022/03/19 01:04:55;;;;;;;;;;;;;;;1.44;50.94;102016.22;5052276;28;19915;-37
2022/03/19 01:07:20;;;;;;;;;;;;;;;1.30;50.87;102010.00;5051858;28;19909;-36
2022/03/19 01:09:45;;;;;;;;;;;;;;;1.41;54.85;102019.88;5052047;28;19916;-36
2022/03/19 01:12:10;;;;;;;;;;;;;;;1.58;51.85;102020.69;5051738;28;19962;-37
2022/03/19 01:14:36;;;;;;;;;;;;;;;1.50;51.53;102026.38;5051671;28;19909;-37
2022/03/19 01:17:01;;;;;;;;;;;;;;;1.29;54.60;102012.72;5052108;28;20341;-36
2022/03/19 01:22:10;;;;;;;;;;;;;;;1.63;52.61;102016.00;5051740;28;20001;-37
2022/03/19 01:24:35;;;;;;;;;;;;;;;1.22;52.73;102021.84;5051911;28;19952;-36
2022/03/19 01:27:01;;;;;;;;;;;;;;;1.23;52.17;102015.69;5070258;28;19917;-36
2022/03/19 01:29:26;;;;;;;;;;;;;;;1.12;55.61;102011.03;5072243;28;19912;-36
2022/03/19 01:31:51;;;;;;;;;;;;;;;1.31;54.38;102014.34;5072018;28;19909;-36
2022/03/19 01:34:18;;;;;;;;;;;;;;;1.35;53.32;102009.72;5070682;28;19924;-36
2022/03/19 01:36:43;;;;;;;;;;;;;;;1.24;53.15;102007.75;5072056;28;19920;-36
2022/03/19 01:39:08;;;;;;;;;;;;;;;1.27;52.56;102006.72;5072307;28;19908;-36
2022/03/19 01:41:39;;;;;;;;;;;;;;;1.23;52.33;101999.94;5071929;28;19944;-36
2022/03/19 01:44:04;;;;;;;;;;;;;;;1.56;53.35;101989.25;5071984;28;19998;-36
2022/03/19 01:46:30;;;;;;;;;;;;;;;1.45;52.29;101989.91;5071969;28;20015;-36
2022/03/19 01:48:55;;;;;;;;;;;;;;;1.09;52.89;101988.47;5071887;28;20034;-36
2022/03/19 01:51:20;;;;;;;;;;;;;;;1.17;56.93;101994.09;5071666;28;20384;-36
2022/03/19 01:53:46;;;;;;;;;;;;;;;1.26;53.94;101994.53;5071723;28;19963;-36
2022/03/19 01:56:11;;;;;;;;;;;;;;;1.41;55.16;101998.91;5071509;28;19912;-36
2022/03/19 01:58:36;;;;;;;;;;;;;;;1.31;54.75;101995.97;5071689;28;19951;-36
2022/03/19 02:01:02;;;;;;;;;;;;;;;1.32;56.78;101994.19;5071465;28;20295;-36
2022/03/19 02:03:28;;;;;;;;;;;;;;;1.60;54.79;101989.94;5072006;28;19912;-36
2022/03/19 02:05:55;;;;;;;;;;;;;;;1.24;56.49;101996.38;5054403;28;19909;-36
2022/03/19 02:08:20;;;;;;;;;;;;;;;1.36;56.93;101999.16;5031661;28;19909;-36
2022/03/19 02:10:46;;;;;;;;;;;;;;;1.30;58.16;101996.03;5031830;28;19928;-36
2022/03/19 02:13:11;;;;;;;;;;;;;;;1.20;57.11;102002.72;5031319;28;19974;-36
2022/03/19 02:15:36;;;;;;;;;;;;;;;1.43;56.43;102002.28;5031804;28;19927;-36
2022/03/19 02:18:02;;;;;;;;;;;;;;;1.33;55.72;101961.75;5031618;28;19916;-36
2022/03/19 02:20:31;;;;;;;;;;;;;;;1.33;56.15;102001.97;5031318;28;19933;-36
2022/03/19 02:25:40;;;;;;;;;;;;;;;1.34;53.91;101997.56;5031267;28;20066;-36
2022/03/19 02:28:06;;;;;;;;;;;;;;;1.14;54.02;102001.31;5031250;28;19955;-36
2022/03/19 02:30:32;;;;;;;;;;;;;;;1.20;54.04;102010.59;5031065;28;19913;-36
2022/03/19 02:32:58;;;;;;;;;;;;;;;1.34;55.06;102003.63;5033442;28;19952;-36
2022/03/19 02:35:23;;;;;;;;;;;;;;;0.91;57.22;101995.56;5054470;28;19908;-36
2022/03/19 02:37:49;;;;;;;;;;;;;;;0.88;55.92;102002.78;5055272;28;19909;-36
2022/03/19 02:40:16;;;;;;;;;;;;;;;0.95;55.58;101997.13;5055188;28;19913;-36
2022/03/19 02:42:42;;;;;;;;;;;;;;;0.90;56.35;101998.31;5055275;28;19927;-36
2022/03/19 02:45:07;;;;;;;;;;;;;;;0.62;56.92;102005.06;5055308;28;19909;-36
2022/03/19 02:47:33;;;;;;;;;;;;;;;0.77;60.70;101996.34;5055011;28;20333;-36
2022/03/19 02:49:58;;;;;;;;;;;;;;;0.82;56.74;102003.97;5055228;28;19962;-36
2022/03/19 02:52:24;;;;;;;;;;;;;;;1.01;56.19;101993.31;5055285;28;20022;-36
2022/03/19 02:54:49;;;;;;;;;;;;;;;0.75;58.35;102000.84;5055019;28;20296;-36
2022/03/19 02:57:15;;;;;;;;;;;;;;;0.83;56.17;101997.78;5054537;28;20296;-36
2022/03/19 02:59:40;;;;;;;;;;;;;;;0.88;57.21;102000.16;5054612;28;20285;-36
2022/03/19 03:02:06;;;;;;;;;;;;;;;0.86;58.91;101997.63;5054820;28;19912;-36
2022/03/19 03:04:32;;;;;;;;;;;;;;;0.78;56.94;101999.81;5054838;28;19915;-36
2022/03/19 03:06:58;;;;;;;;;;;;;;;0.97;57.65;102011.00;5072356;28;20069;-36
2022/03/19 03:09:25;;;;;;;;;;;;;;;0.82;58.88;102006.59;5074733;28;20014;-36
2022/03/19 03:11:50;;;;;;;;;;;;;;;0.77;57.11;102011.25;5074847;28;19965;-37
2022/03/19 03:14:18;;;;;;;;;;;;;;;0.88;55.90;102005.41;5074653;28;19909;-36
2022/03/19 03:16:43;;;;;;;;;;;;;;;0.91;58.29;102003.44;5075075;28;19912;-36
2022/03/19 03:19:10;;;;;;;;;;;;;;;1.35;56.50;102004.47;5074330;28;20272;-37
2022/03/19 03:21:36;;;;;;;;;;;;;;;1.11;56.01;102006.75;5074359;28;20062;-36
2022/03/19 03:24:02;;;;;;;;;;;;;;;1.04;57.59;102000.16;5074537;28;20372;-37
2022/03/19 03:26:28;;;;;;;;;;;;;;;1.06;56.39;102003.53;5074539;28;19916;-37
2022/03/19 03:28:53;;;;;;;;;;;;;;;0.81;56.62;102004.06;5074474;28;19931;-37
2022/03/19 03:31:18;;;;;;;;;;;;;;;1.07;55.86;102005.22;5074622;28;19908;-37
2022/03/19 03:33:44;;;;;;;;;;;;;;;0.91;54.79;102007.84;5065389;28;19909;-37
2022/03/19 03:36:09;;;;;;;;;;;;;;;0.71;55.64;101996.69;5054202;28;19971;-37
2022/03/19 03:38:35;;;;;;;;;;;;;;;0.95;56.52;102004.13;5054343;28;19908;-37
2022/03/19 03:41:00;;;;;;;;;;;;;;;0.97;56.60;102002.25;5054298;28;19936;-37
2022/03/19 03:43:25;;;;;;;;;;;;;;;0.95;57.70;101998.88;5053804;28;20288;-37
2022/03/19 03:45:51;;;;;;;;;;;;;;;0.87;56.10;101998.47;5053495;28;20003;-37
2022/03/19 03:48:17;;;;;;;;;;;;;;;1.17;58.40;101998.53;5054037;28;19909;-37
2022/03/19 03:50:42;;;;;;;;;;;;;;;1.14;57.13;102002.16;5053899;28;20003;-37
2022/03/19 03:53:08;;;;;;;;;;;;;;;0.89;55.39;102001.84;5053954;28;19920;-36
2022/03/19 03:55:34;;;;;;;;;;;;;;;0.76;56.76;101999.91;5053882;28;19904;-36
2022/03/19 03:58:00;;;;;;;;;;;;;;;0.92;57.43;101999.06;5053746;28;19908;-36
2022/03/19 04:00:25;;;;;;;;;;;;;;;1.08;57.93;102002.50;5054066;28;19920;-36
2022/03/19 04:02:51;;;;;;;;;;;;;;;0.97;56.71;102007.50;5053762;28;20242;-36
2022/03/19 04:05:17;;;;;;;;;;;;;;;0.80;55.65;102002.34;5053657;28;19912;-36
2022/03/19 04:07:43;;;;;;;;;;;;;;;0.85;56.02;102002.94;5053484;28;19958;-36
2022/03/19 04:10:08;;;;;;;;;;;;;;;0.87;56.93;102006.34;5053613;28;19912;-37
2022/03/19 04:12:34;;;;;;;;;;;;;;;1.16;57.03;102004.69;5053725;28;19908;-37
2022/03/19 04:14:59;;;;;;;;;;;;;;;1.41;55.59;102004.16;5053591;28;19909;-36
2022/03/19 04:17:25;;;;;;;;;;;;;;;1.40;54.78;102002.44;5053755;28;19983;-36
2022/03/19 04:19:50;;;;;;;;;;;;;;;1.15;55.61;102001.22;5053300;28;20265;-36
2022/03/19 04:22:15;;;;;;;;;;;;;;;1.26;56.29;102007.66;5035454;28;19913;-37
2022/03/19 04:24:41;;;;;;;;;;;;;;;1.20;56.21;102008.84;5053530;28;19920;-36
2022/03/19 04:27:07;;;;;;;;;;;;;;;1.22;54.80;102003.50;5053606;28;20000;-37
2022/03/19 04:29:33;;;;;;;;;;;;;;;1.20;56.43;102005.34;5053166;28;19909;-37
2022/03/19 04:31:58;;;;;;;;;;;;;;;1.20;55.08;102005.34;5053041;28;19913;-37
2022/03/19 04:34:23;;;;;;;;;;;;;;;1.26;54.55;102000.63;5053098;28;19951;-37
2022/03/19 04:36:49;;;;;;;;;;;;;;;1.19;54.15;102006.31;5053034;28;19909;-37
2022/03/19 04:39:14;;;;;;;;;;;;;;;1.24;54.95;102006.88;5053186;28;19915;-37
2022/03/19 04:41:41;;;;;;;;;;;;;;;1.20;53.04;102008.84;5052818;28;20284;-37
2022/03/19 04:44:07;;;;;;;;;;;;;;;1.23;53.66;102007.81;5052784;28;19909;-37
2022/03/19 04:46:32;;;;;;;;;;;;;;;1.36;53.87;102009.66;5053066;28;19909;-38
2022/03/19 04:48:58;;;;;;;;;;;;;;;1.23;53.32;102011.28;5052705;28;20372;-37
2022/03/19 04:51:28;;;;;;;;;;;;;;;1.08;54.47;102012.97;5053065;28;20326;-38
2022/03/19 04:53:54;;;;;;;;;;;;;;;1.09;54.83;102013.84;5052630;28;19916;-37
2022/03/19 04:56:20;;;;;;;;;;;;;;;1.17;51.99;102012.47;5052308;28;20000;-37
2022/03/19 04:58:46;;;;;;;;;;;;;;;1.33;53.65;102015.09;5052555;28;19913;-36
2022/03/19 05:01:11;;;;;;;;;;;;;;;1.40;52.26;102014.72;5052563;28;20027;-36
2022/03/19 05:03:36;;;;;;;;;;;;;;;1.34;54.46;102021.16;5052396;28;20344;-37
2022/03/19 05:06:02;;;;;;;;;;;;;;;1.51;53.26;102021.03;5034203;28;19955;-36
2022/03/19 05:08:27;;;;;;;;;;;;;;;1.51;52.54;102014.94;5052204;28;19916;-36
2022/03/19 05:13:36;;;;;;;;;;;;;;;1.41;51.12;102019.88;5052458;28;20315;-36
2022/03/19 05:16:02;;;;;;;;;;;;;;;1.20;53.45;102026.34;5051939;28;19908;-37
2022/03/19 05:18:27;;;;;;;;;;;;;;;1.40;53.46;102025.22;5052081;28;19909;-37
2022/03/19 05:20:53;;;;;;;;;;;;;;;1.51;50.86;102026.28;5033761;28;20280;-37
2022/03/19 05:23:18;;;;;;;;;;;;;;;1.59;51.18;102022.38;5052169;28;19950;-37
2022/03/19 05:25:43;;;;;;;;;;;;;;;1.68;49.92;102011.34;5059782;28;19920;-37
2022/03/19 05:28:09;;;;;;;;;;;;;;;1.64;50.87;102004.56;5071728;28;19916;-37
2022/03/19 05:30:34;;;;;;;;;;;;;;;1.41;50.13;102013.78;5071688;28;19950;-38
2022/03/19 05:33:00;;;;;;;;;;;;;;;1.59;51.27;102019.75;5068926;28;20302;-37
2022/03/19 05:35:26;;;;;;;;;;;;;;;1.48;51.13;102025.63;5052389;28;19909;-37
2022/03/19 05:37:52;;;;;;;;;;;;;;;1.67;50.18;102026.22;5051915;28;19974;-37
2022/03/19 05:40:17;;;;;;;;;;;;;;;1.76;50.99;102019.59;5052018;28;20462;-37
2022/03/19 05:42:42;;;;;;;;;;;;;;;1.75;50.82;102021.41;5051990;28;19908;-38
2022/03/19 05:45:10;;;;;;;;;;;;;;;1.93;51.66;102016.81;5051799;28;19912;-37
2022/03/19 05:47:36;;;;;;;;;;;;;;;1.90;52.34;102021.41;5051688;28;19916;-37
2022/03/19 05:50:02;;;;;;;;;;;;;;;1.92;51.75;102014.28;5051884;28;19915;-38
2022/03/19 05:52:27;;;;;;;;;;;;;;;1.86;50.51;102019.91;5051505;28;19909;-39
2022/03/19 05:54:53;;;;;;;;;;;;;;;1.86;49.46;102026.00;5051782;28;20003;-37
2022/03/19 05:57:19;;;;;;;;;;;;;;;1.70;50.08;102019.97;5051794;28;19912;-37
2022/03/19 05:59:44;;;;;;;;;;;;;;;1.69;51.37;102013.03;5051726;28;19913;-38
2022/03/19 06:02:09;;;;;;;;;;;;;;;1.80;50.70;102017.66;5051475;28;20352;-38
2022/03/19 06:04:35;;;;;;;;;;;;;;;2.03;48.82;102011.00;5038830;28;19936;-37
2022/03/19 06:07:00;;;;;;;;;;;;;;;1.76;49.12;102015.19;5041707;28;20012;-37
2022/03/19 06:09:26;;;;;;;;;;;;;;;1.66;49.78;102007.97;5034236;28;19913;-37
2022/03/19 06:11:51;;;;;;;;;;;;;;;1.70;49.90;102009.47;5043194;28;19908;-37
2022/03/19 06:14:16;;;;;;;;;;;;;;;2.00;50.91;102012.06;5040212;28;19909;-37
2022/03/19 06:16:42;;;;;;;;;;;;;;;2.08;52.41;102017.69;5041846;28;19948;-36
2022/03/19 06:19:07;;;;;;;;;;;;;;;2.06;52.08;102010.84;5039321;28;20400;-38
2022/03/19 06:21:32;;;;;;;;;;;;;;;1.98;52.47;102016.56;5042308;28;19924;-38
2022/03/19 06:23:57;;;;;;;;;;;;;;;2.06;50.47;102016.09;5050578;28;19939;-37
2022/03/19 06:26:23;;;;;;;;;;;;;;;2.09;50.12;102018.50;5050862;28;19917;-38
2022/03/19 06:28:49;;;;;;;;;;;;;;;2.21;49.94;102020.41;5050681;28;19913;-36
2022/03/19 06:31:14;;;;;;;;;;;;;;;2.18;49.32;102022.38;5050367;28;19967;-38
2022/03/19 06:33:43;;;;;;;;;;;;;;;2.39;49.87;102015.81;5050602;28;20003;-36
2022/03/19 06:38:52;;;;;;;;;;;;;;;2.47;52.41;102020.59;5050592;28;19916;-53
2022/03/19 06:41:18;;;;;;;;;;;;;;;2.68;52.80;102028.91;5050345;28;19932;-49
2022/03/19 06:43:43;;;;;;;;;;;;;;;2.78;52.08;102022.16;5050128;28;19919;-52
2022/03/19 06:46:09;;;;;;;;;;;;;;;2.89;51.66;102024.09;5049811;28;19999;-48
2022/03/19 06:48:35;;;;;;;;;;;;;;;3.79;51.31;102019.94;5050295;28;19920;-49
2022/03/19 06:51:00;;;;;;;;;;;;;;;3.98;48.69;102019.53;5049799;28;19916;-50
2022/03/19 06:53:25;;;;;;;;;;;;;;;3.94;48.73;102019.84;5049840;28;19912;-50
2022/03/19 06:55:51;;;;;;;;;;;;;;;3.74;48.36;102024.69;5050280;28;20329;-53
2022/03/19 06:58:17;;;;;;;;;;;;;;;4.11;49.67;102022.16;5049903;28;19931;-50
2022/03/19 07:00:42;;;;;;;;;;;;;;;4.29;46.42;102018.25;5032762;28;19919;-51
2022/03/19 07:03:08;;;;;;;;;;;;;;;4.13;45.27;102017.63;5048908;28;19966;-50
2022/03/19 07:05:33;;;;;;;;;;;;;;;4.10;45.10;102018.69;5056613;28;19909;-52
2022/03/19 07:07:59;;;;;;;;;;;;;;;4.25;44.21;102019.44;5070389;28;20426;-51
2022/03/19 07:10:25;;;;;;;;;;;;;;;5.27;45.31;102017.44;5070043;28;20007;-53
2022/03/19 07:12:54;;;;;;;;;;;;;;;5.89;43.03;102018.97;5068820;28;19919;-49
2022/03/19 07:15:20;;;;;;;;;;;;;;;5.85;41.62;102014.88;5068507;28;20296;-51
2022/03/19 07:17:46;;;;;;;;;;;;;;;5.90;41.13;102020.63;5069299;28;19909;-50
2022/03/19 07:20:12;;;;;;;;;;;;;;;7.03;51.50;102020.63;5070319;28;19939;-51
2022/03/19 07:22:50;;;;;;;;;;;;;;;7.48;42.49;102023.09;5072742;28;19985;-51
2022/03/19 07:25:15;;;;;;;;;;;;;;;7.11;39.55;102012.06;5072244;28;20383;-51
2022/03/19 07:27:41;;;;;;;;;;;;;;;7.15;38.99;102014.31;5071525;28;19909;-51
2022/03/19 07:30:07;;;;;;;;;;;;;;;7.43;41.92;102017.38;5071456;28;19983;-52
2022/03/19 07:32:32;;;;;;;;;;;;;;;7.49;34.87;102006.25;5071735;28;19915;-52
2022/03/19 07:34:59;;;;;;;;;;;;;;;6.97;35.04;102014.03;5052676;28;19916;-53
2022/03/19 07:37:24;;;;;;;;;;;;;;;6.72;35.69;102003.72;5052223;28;19913;-38
2022/03/19 07:39:50;;;;;;;;;;;;;;;6.63;34.21;102008.81;5052434;28;19971;-38
2022/03/19 07:42:15;;;;;;;;;;;;;;;6.35;36.65;102014.59;5053026;28;20348;-52
2022/03/19 07:44:40;;;;;;;;;;;;;;;6.23;35.63;102011.13;5034942;28;19913;-52
2022/03/19 07:47:05;;;;;;;;;;;;;;;6.33;34.32;102006.78;5052600;28;20340;-49
2022/03/19 07:49:31;;;;;;;;;;;;;;;6.15;34.54;102006.41;5052839;28;19908;-48
2022/03/19 07:51:56;;;;;;;;;;;;;;;6.04;34.73;102017.81;5052613;28;20420;-50
2022/03/19 07:54:23;;;;;;;;;;;;;;;5.88;34.73;102018.13;5052816;28;19966;-53
2022/03/19 07:57:01;;;;;;;;;;;;;;;5.58;35.50;102016.00;5052639;28;19924;-49
2022/03/19 07:59:27;;;;;;;;;;;;;;;5.72;35.10;102006.19;5063995;28;19927;-52
2022/03/19 08:01:53;;;;;;;;;;;;;;;5.85;34.93;101999.84;5072621;28;20022;-52
2022/03/19 08:04:18;;;;;;;;;;;;;;;6.07;36.03;102006.16;5070843;28;19924;-51
2022/03/19 08:06:44;;;;;;;;;;;;;;;5.87;35.46;102007.66;5052908;28;19917;-52
2022/03/19 08:09:10;;;;;;;;;;;;;;;5.96;35.87;102008.78;5052650;28;20356;-52
2022/03/19 08:11:36;;;;;;;;;;;;;;;6.18;34.23;102007.97;5052441;28;19909;-50
2022/03/19 08:14:01;;;;;;;;;;;;;;;6.23;34.94;102001.38;5052620;28;20238;-51
2022/03/19 08:16:27;;;;;;;;;;;;;;;6.36;34.56;102001.25;5052004;28;20293;-49
2022/03/19 08:18:52;;;;;;;;;;;;;;;6.51;34.39;102003.63;5053073;28;19941;-49
2022/03/19 08:21:18;;;;;;;;;;;;;;;6.63;34.39;102003.50;5052917;28;20034;-53
2022/03/19 08:23:43;;;;;;;;;;;;;;;6.81;35.07;101995.06;5052896;28;20410;-51
2022/03/19 08:26:08;;;;;;;;;;;;;;;7.46;34.34;101995.06;5053084;28;19926;-51
2022/03/19 08:28:34;;;;;;;;;;;;;;;7.60;32.73;101997.41;5051935;28;19908;-52
2022/03/19 08:30:59;;;;;;;;;;;;;;;7.68;31.87;101994.94;5051845;28;20043;-52
2022/03/19 08:33:27;;;;;;;;;;;;;;;8.04;32.19;101992.78;5051869;28;19908;-51
2022/03/19 08:35:52;;;;;;;;;;;;;;;8.15;31.81;101984.75;5052229;28;19908;-50
2022/03/19 08:41:02;;;;;;;;;;;;;;;8.65;30.94;101991.09;5052256;28;20435;-51
2022/03/19 08:43:27;;;;;;;;;;;;;;;9.48;30.07;101986.25;5051851;28;19912;-49
2022/03/19 08:45:53;;;;;;;;;;;;;;;8.44;30.85;101984.03;5051731;28;19959;-49
2022/03/19 08:48:18;;;;;;;;;;;;;;;8.26;31.45;101990.91;5052375;28;19978;-48
2022/03/19 08:50:44;;;;;;;;;;;;;;;7.74;32.19;101982.97;5051579;28;20036;-48
2022/03/19 08:53:10;;;;;;;;;;;;;;;7.76;31.15;101984.53;5054255;28;20003;-48
2022/03/19 08:55:35;;;;;;;;;;;;;;;8.15;32.40;101984.75;5050808;28;20015;-48
2022/03/19 08:58:00;;;;;;;;;;;;;;;8.41;32.13;101984.28;5051088;28;19909;-49
2022/03/19 09:00:26;;;;;;;;;;;;;;;7.82;32.41;101984.03;5050956;28;20339;-49
2022/03/19 09:02:51;;;;;;;;;;;;;;;8.73;30.28;101988.59;5051060;28;20237;-48
2022/03/19 09:05:17;;;;;;;;;;;;;;;7.99;30.90;101987.03;5055314;28;19912;-49
2022/03/19 09:07:42;;;;;;;;;;;;;;;8.09;31.29;101987.06;5054882;28;19917;-50
2022/03/19 09:10:08;;;;;;;;;;;;;;;7.67;32.07;101984.47;5051398;28;20339;-49
2022/03/19 09:12:33;;;;;;;;;;;;;;;7.43;32.88;101980.28;5051093;28;19912;-51
2022/03/19 09:14:58;;;;;;;;;;;;;;;7.60;33.57;101982.34;5050213;28;20475;-49
2022/03/19 09:17:23;;;;;;;;;;;;;;;7.66;33.08;101986.28;5050659;28;19912;-49
2022/03/19 09:19:49;;;;;;;;;;;;;;;8.17;32.24;101981.97;5050883;28;19916;-49
2022/03/19 09:22:14;;;;;;;;;;;;;;;8.45;31.29;101988.34;5051185;28;20463;-51
2022/03/19 09:24:40;;;;;;;;;;;;;;;7.87;32.13;101980.97;5050937;28;19994;-52
2022/03/19 09:27:05;;;;;;;;;;;;;;;7.97;32.48;101981.84;5051899;28;19946;-49
2022/03/19 09:29:31;;;;;;;;;;;;;;;7.56;32.22;101983.56;5052297;28;20289;-49
2022/03/19 09:31:56;;;;;;;;;;;;;;;7.19;32.41;101985.78;5051387;28;20347;-52
2022/03/19 09:34:21;;;;;;;;;;;;;;;6.83;33.45;101980.75;5051516;28;19958;-51
2022/03/19 09:36:46;;;;;;;;;;;;;;;6.82;32.73;101973.75;5051211;28;19916;-51
2022/03/19 09:39:15;;;;;;;;;;;;;;;6.42;35.12;101982.25;5050906;28;19909;-51
2022/03/19 09:41:41;;;;;;;;;;;;;;;6.73;34.41;101987.72;5050890;28;20008;-51
2022/03/19 09:44:06;;;;;;;;;;;;;;;7.71;33.21;101984.09;5050987;28;19947;-52
2022/03/19 09:46:31;;;;;;;;;;;;;;;7.15;32.74;101976.41;5051095;28;19916;-52
2022/03/19 09:48:57;;;;;;;;;;;;;;;7.17;33.45;101979.78;5051340;28;20403;-52
2022/03/19 09:51:22;;;;;;;;;;;;;;;6.92;33.85;101973.84;5050848;28;19939;-51
2022/03/19 09:53:48;;;;;;;;;;;;;;;7.35;33.89;101980.91;5053114;28;21541;-51
2022/03/19 09:56:14;;;;;;;;;;;;;;;6.97;33.64;101984.91;5058685;28;19909;-49
2022/03/19 09:58:39;;;;;;;;;;;;;;;6.76;35.07;101987.50;5062254;28;20036;-50
2022/03/19 10:01:05;;;;;;;;;;;;;;;7.50;33.28;101983.22;5060998;28;20404;-50
2022/03/19 10:03:32;;;;;;;;;;;;;;;6.93;35.04;101982.63;5070839;28;19915;-52
2022/03/19 10:08:53;;;;;;;;;;;;;;;7.57;34.28;101966.69;5050706;28;19943;-51
2022/03/19 10:11:18;;;;;;;;;;;;;;;8.06;33.14;101969.63;5050581;28;19915;-49
2022/03/19 10:13:44;;;;;;;;;;;;;;;7.99;32.46;101960.50;5050371;28;19912;-51
2022/03/19 10:16:10;;;;;;;;;;;;;;;8.60;32.78;101963.16;5050060;28;19913;-48
2022/03/19 10:18:35;;;;;;;;;;;;;;;9.28;31.32;101961.50;5049985;28;19909;-48
2022/03/19 10:21:03;;;;;;;;;;;;;;;8.96;31.55;101963.47;5051453;28;20010;-50
2022/03/19 10:23:29;;;;;;;;;;;;;;;9.00;31.29;101962.22;5058040;28;19919;-49
2022/03/19 10:25:55;;;;;;;;;;;;;;;7.83;32.50;101964.47;5039282;28;19917;-49
2022/03/19 10:28:27;;;;;;;;;;;;;;;7.84;31.87;101973.28;5050740;28;19915;-49
2022/03/19 10:30:52;;;;;;;;;;;;;;;6.81;33.63;101958.84;5050494;28;19909;-52
2022/03/19 10:33:22;;;;;;;;;;;;;;;6.18;33.91;101957.75;5050392;28;20397;-51
2022/03/19 10:35:48;;;;;;;;;;;;;;;6.84;33.74;101955.13;5050704;28;19909;-52
2022/03/19 10:38:17;;;;;;;;;;;;;;;7.60;31.92;101952.34;5050886;28;19908;-49
2022/03/19 10:40:43;;;;;;;;;;;;;;;7.43;32.40;101937.88;5050396;28;19928;-50
2022/03/19 10:43:10;;;;;;;;;;;;;;;7.23;32.86;101947.50;5050555;28;20339;-49
2022/03/19 10:45:45;;;;;;;;;;;;;;;7.68;31.58;101943.75;5050452;28;19916;-49
2022/03/19 10:48:12;;;;;;;;;;;;;;;7.83;31.10;101940.63;5050488;28;20372;-51
2022/03/19 10:50:40;;;;;;;;;;;;;;;9.06;30.20;101938.72;5050608;28;19909;-53
2022/03/19 10:53:06;;;;;;;;;;;;;;;9.16;30.41;101931.59;5050653;28;20014;-52
2022/03/19 10:55:32;;;;;;;;;;;;;;;8.80;31.03;101926.84;5053142;28;19922;-52
2022/03/19 10:57:57;;;;;;;;;;;;;;;8.48;31.46;101918.28;5074842;28;19915;-49
2022/03/19 11:00:22;;;;;;;;;;;;;;;7.99;31.13;101913.63;5074931;28;19916;-49
2022/03/19 11:02:49;;;;;;;;;;;;;;;7.69;31.25;101916.25;5074450;28;19908;-49
2022/03/19 11:05:18;;;;;;;;;;;;;;;7.70;32.61;101913.50;5077947;28;20007;-51
2022/03/19 11:07:44;;;;;;;;;;;;;;;8.34;31.52;101915.00;5094770;28;19915;-52
2022/03/19 11:10:09;;;;;;;;;;;;;;;8.17;31.07;101905.88;5094855;28;19911;-50
2022/03/19 11:12:35;;;;;;;;;;;;;;;7.63;31.73;101910.53;5094822;28;19908;-52
2022/03/19 11:15:02;;;;;;;;;;;;;;;7.72;31.75;101902.75;5094321;28;19907;-50
2022/03/19 11:17:30;;;;;;;;;;;;;;;7.44;31.12;101898.03;5094612;28;19939;-50
2022/03/19 11:20:00;;;;;;;;;;;;;;;7.38;31.04;101895.88;5094291;28;19908;-52
2022/03/19 11:22:27;;;;;;;;;;;;;;;7.17;31.46;101897.69;5094976;28;20340;-49
2022/03/19 11:25:07;;;;;;;;;;;;;;;7.50;31.51;101890.50;5083581;28;20488;-52
2022/03/19 11:27:34;;;;;;;;;;;;;;;8.47;30.27;101896.19;5051643;28;19912;-52
2022/03/19 11:30:00;;;;;;;;;;;;;;;8.53;30.87;101887.69;5053510;28;19913;-37
2022/03/19 11:32:26;;;;;;;;;;;;;;;8.26;29.98;101880.34;5053799;28;19908;-37
2022/03/19 11:34:56;;;;;;;;;;;;;;;7.98;31.55;101880.13;5053576;28;19995;-38
2022/03/19 11:37:22;;;;;;;;;;;;;;;8.19;30.89;101881.88;5053778;28;20390;-38
2022/03/19 11:40:05;;;;;;;;;;;;;;;7.68;31.11;101872.19;5053266;28;19912;-39
2022/03/19 11:42:31;;;;;;;;;;;;;;;7.29;30.42;101877.28;5048373;28;20000;-38
2022/03/19 11:45:07;;;;;;;;;;;;;;;7.38;32.02;101872.03;5053193;28;19947;-38
2022/03/19 11:47:34;;;;;;;;;;;;;;;7.41;31.34;101868.31;5053104;28;19962;-38
2022/03/19 11:50:02;;;;;;;;;;;;;;;7.29;30.50;101864.03;5053815;28;19909;-39
2022/03/19 11:52:30;;;;;;;;;;;;;;;8.45;29.46;101866.31;5050646;28;19912;-39
2022/03/19 11:55:04;;;;;;;;;;;;;;;8.23;30.03;101872.66;5052705;28;19936;-37
2022/03/19 11:57:45;;;;;;;;;;;;;;;8.39;30.56;101867.66;5050699;28;19919;-37
2022/03/19 12:00:12;;;;;;;;;;;;;;;8.27;30.02;101862.63;5050903;28;19935;-37
2022/03/19 12:02:56;;;;;;;;;;;;;;;8.10;30.35;101864.94;5052973;28;19908;-38
2022/03/19 12:05:26;;;;;;;;;;;;;;;7.74;31.89;101864.53;5057017;28;19915;-37
2022/03/19 12:07:54;;;;;;;;;;;;;;;8.25;31.13;101861.94;5072465;28;19916;-38
2022/03/19 12:10:21;;;;;;;;;;;;;;;8.07;31.40;101867.84;5072710;28;19909;-38
2022/03/19 12:12:47;;;;;;;;;;;;;;;8.11;31.65;101869.28;5072857;28;19908;-39
2022/03/19 12:15:31;;;;;;;;;;;;;;;7.33;32.04;101865.44;5072864;28;19912;-38
2022/03/19 12:18:15;;;;;;;;;;;;;;;6.66;33.52;101856.88;5072980;28;19958;-38
2022/03/19 12:20:43;;;;;;;;;;;;;;;7.02;32.23;101860.09;5072442;28;19925;-37
2022/03/19 12:23:10;;;;;;;;;;;;;;;6.80;33.71;101858.41;5072736;28;19912;-37
2022/03/19 12:25:40;;;;;;;;;;;;;;;6.41;33.61;101855.41;5072483;28;19966;-37
2022/03/19 12:28:05;;;;;;;;;;;;;;;7.30;32.96;101850.66;5072958;28;19954;-38
2022/03/19 12:30:31;;;;;;;;;;;;;;;6.63;34.31;101858.00;5073036;28;19935;-38
2022/03/19 12:32:57;;;;;;;;;;;;;;;6.94;34.07;101849.31;5073272;28;20336;-37
2022/03/19 12:35:39;;;;;;;;;;;;;;;6.90;34.12;101848.72;5072857;28;19923;-37
2022/03/19 12:38:04;;;;;;;;;;;;;;;7.24;33.15;101840.59;5072749;28;19943;-38
2022/03/19 12:41:23;;;;;;;;;;;;;;;6.89;34.36;101839.09;5071917;28;19955;-36
2022/03/19 12:43:16;;;;;;;;;;;;;;;7.09;35.00;101831.31;5066814;28;19913;-38
2022/03/19 12:45:43;;;;;;;;;;;;;;;8.38;32.45;101828.03;5052406;28;19908;-36
2022/03/19 12:48:12;;;;;;;;;;;;;;;7.98;32.36;101831.56;5052283;28;20365;-37
2022/03/19 12:50:38;;;;;;;;;;;;;;;7.29;33.11;101829.59;5052385;28;19909;-49
2022/03/19 12:53:04;;;;;;;;;;;;;;;7.11;33.97;101826.72;5053143;28;20277;-49
2022/03/19 12:55:29;;;;;;;;;;;;;;;7.65;33.61;101828.22;5051541;28;20365;-52
2022/03/19 12:57:56;;;;;;;;;;;;;;;7.80;33.26;101820.75;5052069;28;19916;-49
2022/03/19 13:00:22;;;;;;;;;;;;;;;8.72;31.38;101825.81;5050321;28;19908;-49